sensor_id;sensor_type;location;lat;lon;timestamp;pressure;altitude;pressure_sealevel;temperature;humidity
28167;BME280;15455;53.376;-6.262;2023-07-31T00:02:34;100018.22;;;15.90;100.00
28167;BME280;15455;53.376;-6.262;2023-07-31T00:05:20;100024.38;;;15.89;100.00
28167;BME280;15455;53.376;-6.262;2023-07-31T00:08:06;100015.59;;;15.89;100.00
28167;BME280;15455;53.376;-6.262;2023-07-31T00:10:52;100023.63;;;15.86;100.00
28167;BME280;15455;53.376;-6.262;2023-07-31T00:13:38;100020.19;;;15.84;100.00
28167;BME280;15455;53.376;-6.262;2023-07-31T00:16:24;100005.38;;;15.81;100.00
28167;BME280;15455;53.376;-6.262;2023-07-31T00:19:09;100008.06;;;15.79;100.00
28167;BME280;15455;53.376;-6.262;2023-07-31T00:21:54;99993.19;;;15.78;100.00
28167;BME280;15455;53.376;-6.262;2023-07-31T00:24:40;100002.88;;;15.76;100.00
28167;BME280;15455;53.376;-6.262;2023-07-31T00:27:25;99997.75;;;15.73;100.00
28167;BME280;15455;53.376;-6.262;2023-07-31T00:30:11;99994.28;;;15.71;100.00
28167;BME280;15455;53.376;-6.262;2023-07-31T00:32:57;99997.03;;;15.68;100.00
28167;BME280;15455;53.376;-6.262;2023-07-31T00:35:42;100005.94;;;15.64;100.00
28167;BME280;15455;53.376;-6.262;2023-07-31T00:38:28;100012.06;;;15.65;100.00
28167;BME280;15455;53.376;-6.262;2023-07-31T00:41:13;99998.97;;;15.63;100.00
28167;BME280;15455;53.376;-6.262;2023-07-31T00:44:00;100003.31;;;15.64;100.00
28167;BME280;15455;53.376;-6.262;2023-07-31T00:46:45;99999.03;;;15.61;100.00
28167;BME280;15455;53.376;-6.262;2023-07-31T00:49:31;99994.69;;;15.60;100.00
28167;BME280;15455;53.376;-6.262;2023-07-31T00:52:18;100005.19;;;15.60;100.00
28167;BME280;15455;53.376;-6.262;2023-07-31T00:55:05;99998.22;;;15.59;100.00
28167;BME280;15455;53.376;-6.262;2023-07-31T00:57:50;100001.72;;;15.60;100.00
28167;BME280;15455;53.376;-6.262;2023-07-31T01:00:38;100003.53;;;15.58;100.00
28167;BME280;15455;53.376;-6.262;2023-07-31T01:03:23;100005.31;;;15.57;100.00
28167;BME280;15455;53.376;-6.262;2023-07-31T01:12:41;100012.50;;;15.52;100.00
28167;BME280;15455;53.376;-6.262;2023-07-31T01:15:30;100008.13;;;15.51;100.00
28167;BME280;15455;53.376;-6.262;2023-07-31T01:18:16;100000.25;;;15.51;100.00
28167;BME280;15455;53.376;-6.262;2023-07-31T01:21:11;99990.59;;;15.52;100.00
28167;BME280;15455;53.376;-6.262;2023-07-31T01:27:41;99995.81;;;15.53;100.00
28167;BME280;15455;53.376;-6.262;2023-07-31T01:30:33;99987.91;;;15.53;100.00
28167;BME280;15455;53.376;-6.262;2023-07-31T01:33:20;99981.91;;;15.50;100.00
28167;BME280;15455;53.376;-6.262;2023-07-31T01:36:07;99984.63;;;15.46;100.00
28167;BME280;15455;53.376;-6.262;2023-07-31T01:38:58;99985.59;;;15.44;100.00
28167;BME280;15455;53.376;-6.262;2023-07-31T01:41:44;99988.41;;;15.39;100.00
28167;BME280;15455;53.376;-6.262;2023-07-31T01:44:30;99991.97;;;15.38;100.00
28167;BME280;15455;53.376;-6.262;2023-07-31T01:47:15;99994.66;;;15.35;100.00
28167;BME280;15455;53.376;-6.262;2023-07-31T01:50:01;99999.97;;;15.34;100.00
28167;BME280;15455;53.376;-6.262;2023-07-31T01:52:47;99998.28;;;15.33;100.00
28167;BME280;15455;53.376;-6.262;2023-07-31T01:55:32;100006.22;;;15.31;100.00
28167;BME280;15455;53.376;-6.262;2023-07-31T01:58:18;100010.53;;;15.32;100.00
28167;BME280;15455;53.376;-6.262;2023-07-31T02:01:04;100015.00;;;15.30;100.00
28167;BME280;15455;53.376;-6.262;2023-07-31T02:03:52;100008.88;;;15.29;100.00
28167;BME280;15455;53.376;-6.262;2023-07-31T02:06:40;100012.44;;;15.28;100.00
28167;BME280;15455;53.376;-6.262;2023-07-31T02:09:26;100008.09;;;15.27;100.00
28167;BME280;15455;53.376;-6.262;2023-07-31T02:12:12;100008.94;;;15.28;100.00
28167;BME280;15455;53.376;-6.262;2023-07-31T02:15:00;100011.56;;;15.28;100.00
28167;BME280;15455;53.376;-6.262;2023-07-31T02:17:45;100013.34;;;15.27;100.00
28167;BME280;15455;53.376;-6.262;2023-07-31T02:20:34;100009.88;;;15.27;100.00
28167;BME280;15455;53.376;-6.262;2023-07-31T02:23:19;100009.88;;;15.27;100.00
28167;BME280;15455;53.376;-6.262;2023-07-31T02:26:05;100010.72;;;15.27;100.00
28167;BME280;15455;53.376;-6.262;2023-07-31T02:28:50;100020.38;;;15.27;100.00
28167;BME280;15455;53.376;-6.262;2023-07-31T02:31:36;100002.03;;;15.25;100.00
28167;BME280;15455;53.376;-6.262;2023-07-31T02:34:23;100005.56;;;15.24;100.00
28167;BME280;15455;53.376;-6.262;2023-07-31T02:37:08;100005.56;;;15.24;100.00
28167;BME280;15455;53.376;-6.262;2023-07-31T02:39:54;100000.31;;;15.24;100.00
28167;BME280;15455;53.376;-6.262;2023-07-31T02:42:40;99998.53;;;15.25;100.00
28167;BME280;15455;53.376;-6.262;2023-07-31T02:45:25;99999.50;;;15.22;100.00
28167;BME280;15455;53.376;-6.262;2023-07-31T02:48:11;100003.00;;;15.23;100.00
28167;BME280;15455;53.376;-6.262;2023-07-31T02:50:56;99995.03;;;15.24;100.00
28167;BME280;15455;53.376;-6.262;2023-07-31T02:53:42;99991.56;;;15.24;100.00
28167;BME280;15455;53.376;-6.262;2023-07-31T02:56:27;99992.47;;;15.23;100.00
28167;BME280;15455;53.376;-6.262;2023-07-31T02:59:13;99987.16;;;15.24;100.00
28167;BME280;15455;53.376;-6.262;2023-07-31T03:01:58;99976.66;;;15.24;100.00
28167;BME280;15455;53.376;-6.262;2023-07-31T03:04:44;99966.13;;;15.24;100.00
28167;BME280;15455;53.376;-6.262;2023-07-31T03:07:29;99973.13;;;15.25;100.00
28167;BME280;15455;53.376;-6.262;2023-07-31T03:10:15;99963.44;;;15.26;100.00
28167;BME280;15455;53.376;-6.262;2023-07-31T03:13:01;99965.16;;;15.27;100.00
28167;BME280;15455;53.376;-6.262;2023-07-31T03:15:46;99968.75;;;15.24;100.00
28167;BME280;15455;53.376;-6.262;2023-07-31T03:18:32;99961.72;;;15.25;100.00
28167;BME280;15455;53.376;-6.262;2023-07-31T03:21:18;99963.56;;;15.23;100.00
28167;BME280;15455;53.376;-6.262;2023-07-31T03:24:03;99972.34;;;15.22;100.00
28167;BME280;15455;53.376;-6.262;2023-07-31T03:26:49;99974.97;;;15.22;100.00
28167;BME280;15455;53.376;-6.262;2023-07-31T03:29:34;99975.88;;;15.21;100.00
28167;BME280;15455;53.376;-6.262;2023-07-31T03:32:20;99983.72;;;15.22;100.00
28167;BME280;15455;53.376;-6.262;2023-07-31T03:35:06;99970.59;;;15.22;100.00
28167;BME280;15455;53.376;-6.262;2023-07-31T03:37:52;99966.97;;;15.25;100.00
28167;BME280;15455;53.376;-6.262;2023-07-31T03:40:37;99964.34;;;15.25;100.00
28167;BME280;15455;53.376;-6.262;2023-07-31T03:43:23;99974.81;;;15.26;100.00
28167;BME280;15455;53.376;-6.262;2023-07-31T03:46:09;99959.03;;;15.26;100.00
28167;BME280;15455;53.376;-6.262;2023-07-31T03:48:54;99955.50;;;15.27;100.00
28167;BME280;15455;53.376;-6.262;2023-07-31T03:51:40;99938.81;;;15.28;100.00
28167;BME280;15455;53.376;-6.262;2023-07-31T03:54:27;99933.56;;;15.28;100.00
28167;BME280;15455;53.376;-6.262;2023-07-31T03:57:12;99930.94;;;15.28;100.00
28167;BME280;15455;53.376;-6.262;2023-07-31T03:59:58;99934.41;;;15.29;100.00
28167;BME280;15455;53.376;-6.262;2023-07-31T04:02:43;99937.09;;;15.27;100.00
28167;BME280;15455;53.376;-6.262;2023-07-31T04:05:31;99935.25;;;15.29;100.00
28167;BME280;15455;53.376;-6.262;2023-07-31T04:08:17;99927.44;;;15.28;100.00
28167;BME280;15455;53.376;-6.262;2023-07-31T04:11:02;99936.19;;;15.28;100.00
28167;BME280;15455;53.376;-6.262;2023-07-31T04:13:48;99934.47;;;15.27;100.00
28167;BME280;15455;53.376;-6.262;2023-07-31T04:16:33;99940.56;;;15.28;100.00
28167;BME280;15455;53.376;-6.262;2023-07-31T04:19:19;99953.72;;;15.28;100.00
28167;BME280;15455;53.376;-6.262;2023-07-31T04:22:04;99963.38;;;15.27;100.00
28167;BME280;15455;53.376;-6.262;2023-07-31T04:24:50;99961.56;;;15.29;100.00
28167;BME280;15455;53.376;-6.262;2023-07-31T04:27:35;99971.22;;;15.29;100.00
28167;BME280;15455;53.376;-6.262;2023-07-31T04:30:20;99973.00;;;15.28;100.00
28167;BME280;15455;53.376;-6.262;2023-07-31T04:33:06;99974.75;;;15.28;100.00
28167;BME280;15455;53.376;-6.262;2023-07-31T04:35:53;99965.97;;;15.29;100.00
28167;BME280;15455;53.376;-6.262;2023-07-31T04:38:40;99958.91;;;15.29;100.00
28167;BME280;15455;53.376;-6.262;2023-07-31T04:41:26;99958.97;;;15.28;100.00
28167;BME280;15455;53.376;-6.262;2023-07-31T04:44:12;99959.03;;;15.26;100.00
28167;BME280;15455;53.376;-6.262;2023-07-31T04:46:57;99954.72;;;15.25;100.00
28167;BME280;15455;53.376;-6.262;2023-07-31T04:49:43;99950.31;;;15.26;100.00
28167;BME280;15455;53.376;-6.262;2023-07-31T04:52:28;99952.13;;;15.24;100.00
28167;BME280;15455;53.376;-6.262;2023-07-31T04:55:14;99948.63;;;15.23;100.00
28167;BME280;15455;53.376;-6.262;2023-07-31T04:57:59;99940.75;;;15.23;100.00
28167;BME280;15455;53.376;-6.262;2023-07-31T05:00:45;99948.69;;;15.22;100.00
28167;BME280;15455;53.376;-6.262;2023-07-31T05:03:30;99956.63;;;15.20;100.00
28167;BME280;15455;53.376;-6.262;2023-07-31T05:06:15;99962.72;;;15.21;100.00
28167;BME280;15455;53.376;-6.262;2023-07-31T05:09:01;99960.06;;;15.22;100.00
28167;BME280;15455;53.376;-6.262;2023-07-31T05:11:47;99974.00;;;15.24;100.00
28167;BME280;15455;53.376;-6.262;2023-07-31T05:14:33;99985.38;;;15.25;100.00
28167;BME280;15455;53.376;-6.262;2023-07-31T05:17:18;99973.97;;;15.26;100.00
28167;BME280;15455;53.376;-6.262;2023-07-31T05:20:04;99970.47;;;15.25;100.00
28167;BME280;15455;53.376;-6.262;2023-07-31T05:22:50;99967.91;;;15.24;100.00
28167;BME280;15455;53.376;-6.262;2023-07-31T05:25:36;99959.25;;;15.20;100.00
28167;BME280;15455;53.376;-6.262;2023-07-31T05:28:21;99971.72;;;15.15;100.00
28167;BME280;15455;53.376;-6.262;2023-07-31T05:31:07;99970.94;;;15.11;100.00
28167;BME280;15455;53.376;-6.262;2023-07-31T05:33:52;99972.00;;;15.06;100.00
28167;BME280;15455;53.376;-6.262;2023-07-31T05:36:38;99969.53;;;15.01;100.00
28167;BME280;15455;53.376;-6.262;2023-07-31T05:39:24;99978.38;;;14.99;100.00
28167;BME280;15455;53.376;-6.262;2023-07-31T05:42:10;99974.03;;;14.98;100.00
28167;BME280;15455;53.376;-6.262;2023-07-31T05:44:55;99967.91;;;14.97;100.00
28167;BME280;15455;53.376;-6.262;2023-07-31T05:47:40;99957.34;;;14.99;100.00
28167;BME280;15455;53.376;-6.262;2023-07-31T05:50:26;99966.06;;;15.01;100.00
28167;BME280;15455;53.376;-6.262;2023-07-31T05:53:12;99956.41;;;15.01;100.00
28167;BME280;15455;53.376;-6.262;2023-07-31T05:55:57;99961.59;;;15.03;100.00
28167;BME280;15455;53.376;-6.262;2023-07-31T05:58:43;99950.25;;;15.02;100.00
28167;BME280;15455;53.376;-6.262;2023-07-31T06:01:28;99953.78;;;15.01;100.00
28167;BME280;15455;53.376;-6.262;2023-07-31T06:04:14;99957.34;;;14.99;100.00
28167;BME280;15455;53.376;-6.262;2023-07-31T06:07:00;99965.34;;;14.96;100.00
28167;BME280;15455;53.376;-6.262;2023-07-31T06:09:46;99957.56;;;14.92;100.00
28167;BME280;15455;53.376;-6.262;2023-07-31T06:12:35;99948.91;;;14.89;100.00
28167;BME280;15455;53.376;-6.262;2023-07-31T06:15:20;99949.97;;;14.83;100.00
28167;BME280;15455;53.376;-6.262;2023-07-31T06:18:06;99952.69;;;14.80;100.00
28167;BME280;15455;53.376;-6.262;2023-07-31T06:20:53;99946.03;;;14.70;100.00
28167;BME280;15455;53.376;-6.262;2023-07-31T06:23:38;99944.41;;;14.66;100.00
28167;BME280;15455;53.376;-6.262;2023-07-31T06:26:24;99941.06;;;14.61;100.00
28167;BME280;15455;53.376;-6.262;2023-07-31T06:29:09;99942.06;;;14.56;100.00
28167;BME280;15455;53.376;-6.262;2023-07-31T06:31:55;99941.22;;;14.54;100.00
28167;BME280;15455;53.376;-6.262;2023-07-31T06:34:41;99942.13;;;14.55;100.00
28167;BME280;15455;53.376;-6.262;2023-07-31T06:37:26;99933.34;;;14.56;100.00
28167;BME280;15455;53.376;-6.262;2023-07-31T06:40:12;99937.72;;;14.55;100.00
28167;BME280;15455;53.376;-6.262;2023-07-31T06:42:58;99954.25;;;14.59;100.00
28167;BME280;15455;53.376;-6.262;2023-07-31T06:45:43;99952.47;;;14.59;100.00
28167;BME280;15455;53.376;-6.262;2023-07-31T06:48:29;99962.16;;;14.57;100.00
28167;BME280;15455;53.376;-6.262;2023-07-31T06:51:15;99978.72;;;14.59;100.00
28167;BME280;15455;53.376;-6.262;2023-07-31T06:54:00;99975.19;;;14.61;100.00
28167;BME280;15455;53.376;-6.262;2023-07-31T06:56:46;99978.56;;;14.66;100.00
28167;BME280;15455;53.376;-6.262;2023-07-31T06:59:31;99962.75;;;14.67;100.00
28167;BME280;15455;53.376;-6.262;2023-07-31T07:02:16;99957.41;;;14.70;100.00
28167;BME280;15455;53.376;-6.262;2023-07-31T07:05:02;99944.25;;;14.72;100.00
28167;BME280;15455;53.376;-6.262;2023-07-31T07:07:49;99938.94;;;14.73;100.00
28167;BME280;15455;53.376;-6.262;2023-07-31T07:10:37;99933.69;;;14.73;100.00
28167;BME280;15455;53.376;-6.262;2023-07-31T07:13:22;99925.84;;;14.72;100.00
28167;BME280;15455;53.376;-6.262;2023-07-31T07:16:08;99931.19;;;14.69;100.00
28167;BME280;15455;53.376;-6.262;2023-07-31T07:18:55;99932.94;;;14.68;100.00
28167;BME280;15455;53.376;-6.262;2023-07-31T07:21:49;99926.84;;;14.68;100.00
28167;BME280;15455;53.376;-6.262;2023-07-31T07:24:34;99939.06;;;14.69;100.00
28167;BME280;15455;53.376;-6.262;2023-07-31T07:27:20;99930.34;;;14.68;100.00
28167;BME280;15455;53.376;-6.262;2023-07-31T07:30:05;99946.91;;;14.70;100.00
28167;BME280;15455;53.376;-6.262;2023-07-31T07:32:51;99940.69;;;14.73;100.00
28167;BME280;15455;53.376;-6.262;2023-07-31T07:35:37;99939.72;;;14.75;100.00
28167;BME280;15455;53.376;-6.262;2023-07-31T07:38:23;99935.31;;;14.76;100.00
28167;BME280;15455;53.376;-6.262;2023-07-31T07:41:08;99934.56;;;14.72;100.00
28167;BME280;15455;53.376;-6.262;2023-07-31T07:43:54;99921.44;;;14.72;100.00
28167;BME280;15455;53.376;-6.262;2023-07-31T07:46:40;99924.19;;;14.69;100.00
28167;BME280;15455;53.376;-6.262;2023-07-31T07:49:26;99913.66;;;14.69;100.00
28167;BME280;15455;53.376;-6.262;2023-07-31T07:52:12;99917.09;;;14.71;100.00
28167;BME280;15455;53.376;-6.262;2023-07-31T07:54:57;99913.50;;;14.74;100.00
28167;BME280;15455;53.376;-6.262;2023-07-31T07:57:42;99922.19;;;14.76;100.00
28167;BME280;15455;53.376;-6.262;2023-07-31T08:00:30;99924.75;;;14.79;100.00
28167;BME280;15455;53.376;-6.262;2023-07-31T08:03:15;99914.91;;;14.84;100.00
28167;BME280;15455;53.376;-6.262;2023-07-31T08:06:02;99913.13;;;14.85;100.00
28167;BME280;15455;53.376;-6.262;2023-07-31T08:08:48;99912.19;;;14.87;100.00
28167;BME280;15455;53.376;-6.262;2023-07-31T08:11:33;99917.34;;;14.90;100.00
28167;BME280;15455;53.376;-6.262;2023-07-31T08:14:19;99909.31;;;14.95;100.00
28167;BME280;15455;53.376;-6.262;2023-07-31T08:17:04;99909.03;;;15.03;100.00
28167;BME280;15455;53.376;-6.262;2023-07-31T08:19:50;99924.47;;;15.12;100.00
28167;BME280;15455;53.376;-6.262;2023-07-31T08:22:35;99940.97;;;15.17;100.00
28167;BME280;15455;53.376;-6.262;2023-07-31T08:25:21;99949.56;;;15.22;100.00
28167;BME280;15455;53.376;-6.262;2023-07-31T08:28:06;99954.00;;;15.20;100.00
28167;BME280;15455;53.376;-6.262;2023-07-31T08:30:52;99970.88;;;15.13;100.00
28167;BME280;15455;53.376;-6.262;2023-07-31T08:33:38;99957.84;;;15.10;100.00
28167;BME280;15455;53.376;-6.262;2023-07-31T08:36:24;99958.19;;;14.99;100.00
28167;BME280;15455;53.376;-6.262;2023-07-31T08:39:14;99964.44;;;14.97;100.00
28167;BME280;15455;53.376;-6.262;2023-07-31T08:42:00;99968.28;;;14.86;100.00
28167;BME280;15455;53.376;-6.262;2023-07-31T08:44:46;99947.44;;;14.80;100.00
28167;BME280;15455;53.376;-6.262;2023-07-31T08:47:32;99939.63;;;14.79;100.00
28167;BME280;15455;53.376;-6.262;2023-07-31T08:50:20;99942.09;;;14.83;100.00
28167;BME280;15455;53.376;-6.262;2023-07-31T08:53:06;99939.34;;;14.88;100.00
28167;BME280;15455;53.376;-6.262;2023-07-31T08:55:52;99936.53;;;14.92;100.00
28167;BME280;15455;53.376;-6.262;2023-07-31T08:58:40;99933.75;;;14.97;100.00
28167;BME280;15455;53.376;-6.262;2023-07-31T09:01:29;99925.53;;;15.06;100.00
28167;BME280;15455;53.376;-6.262;2023-07-31T09:04:16;99908.03;;;15.07;100.00
28167;BME280;15455;53.376;-6.262;2023-07-31T09:07:05;99916.53;;;15.14;100.00
28167;BME280;15455;53.376;-6.262;2023-07-31T09:09:51;99907.91;;;15.10;100.00
28167;BME280;15455;53.376;-6.262;2023-07-31T09:12:36;99899.28;;;15.06;100.00
28167;BME280;15455;53.376;-6.262;2023-07-31T09:15:23;99912.09;;;15.16;100.00
28167;BME280;15455;53.376;-6.262;2023-07-31T09:18:22;99898.97;;;15.16;100.00
28167;BME280;15455;53.376;-6.262;2023-07-31T09:21:08;99895.91;;;15.03;100.00
28167;BME280;15455;53.376;-6.262;2023-07-31T09:23:54;99909.00;;;15.04;100.00
28167;BME280;15455;53.376;-6.262;2023-07-31T09:26:39;99922.13;;;15.04;100.00
28167;BME280;15455;53.376;-6.262;2023-07-31T09:29:27;99919.72;;;14.98;100.00
28167;BME280;15455;53.376;-6.262;2023-07-31T09:32:16;99935.66;;;14.93;100.00
28167;BME280;15455;53.376;-6.262;2023-07-31T09:35:13;99940.97;;;14.90;100.00
28167;BME280;15455;53.376;-6.262;2023-07-31T09:38:02;99940.06;;;14.91;100.00
28167;BME280;15455;53.376;-6.262;2023-07-31T09:40:49;99951.47;;;14.90;100.00
28167;BME280;15455;53.376;-6.262;2023-07-31T09:43:35;99962.94;;;14.89;100.00
28167;BME280;15455;53.376;-6.262;2023-07-31T09:46:20;99958.72;;;14.84;100.00
28167;BME280;15455;53.376;-6.262;2023-07-31T09:49:08;99957.16;;;14.78;100.00
28167;BME280;15455;53.376;-6.262;2023-07-31T09:51:54;99953.66;;;14.77;100.00
28167;BME280;15455;53.376;-6.262;2023-07-31T09:54:39;99954.69;;;14.73;100.00
28167;BME280;15455;53.376;-6.262;2023-07-31T09:57:25;99944.19;;;14.73;100.00
28167;BME280;15455;53.376;-6.262;2023-07-31T10:00:13;99948.41;;;14.77;100.00
28167;BME280;15455;53.376;-6.262;2023-07-31T10:03:00;99942.19;;;14.80;100.00
28167;BME280;15455;53.376;-6.262;2023-07-31T10:05:50;99932.47;;;14.84;100.00
28167;BME280;15455;53.376;-6.262;2023-07-31T10:08:36;99927.94;;;14.87;100.00
28167;BME280;15455;53.376;-6.262;2023-07-31T10:11:23;99916.44;;;14.91;100.00
28167;BME280;15455;53.376;-6.262;2023-07-31T10:14:11;99922.50;;;14.93;100.00
28167;BME280;15455;53.376;-6.262;2023-07-31T10:16:58;99919.06;;;14.91;100.00
28167;BME280;15455;53.376;-6.262;2023-07-31T10:19:44;99915.59;;;14.91;100.00
28167;BME280;15455;53.376;-6.262;2023-07-31T10:22:31;99930.53;;;14.89;100.00
28167;BME280;15455;53.376;-6.262;2023-07-31T10:25:18;99938.47;;;14.87;100.00
28167;BME280;15455;53.376;-6.262;2023-07-31T10:28:05;99928.09;;;14.83;100.00
28167;BME280;15455;53.376;-6.262;2023-07-31T10:30:51;99928.47;;;14.72;100.00
28167;BME280;15455;53.376;-6.262;2023-07-31T10:33:37;99935.81;;;14.61;100.00
28167;BME280;15455;53.376;-6.262;2023-07-31T10:36:23;99941.22;;;14.54;100.00
28167;BME280;15455;53.376;-6.262;2023-07-31T10:39:34;99943.97;;;14.51;100.00
28167;BME280;15455;53.376;-6.262;2023-07-31T10:42:32;99958.88;;;14.51;100.00
28167;BME280;15455;53.376;-6.262;2023-07-31T10:45:39;99970.94;;;14.56;100.00
28167;BME280;15455;53.376;-6.262;2023-07-31T10:48:33;99970.00;;;14.59;100.00
28167;BME280;15455;53.376;-6.262;2023-07-31T10:51:20;99969.16;;;14.57;100.00
28167;BME280;15455;53.376;-6.262;2023-07-31T10:54:15;99973.53;;;14.58;100.00
28167;BME280;15455;53.376;-6.262;2023-07-31T10:57:01;99964.69;;;14.62;100.00
28167;BME280;15455;53.376;-6.262;2023-07-31T10:59:48;99969.41;;;14.79;100.00
28167;BME280;15455;53.376;-6.262;2023-07-31T11:02:34;99966.97;;;15.00;100.00
28167;BME280;15455;53.376;-6.262;2023-07-31T11:05:20;99965.13;;;15.28;100.00
28167;BME280;15455;53.376;-6.262;2023-07-31T11:08:45;99951.16;;;15.52;100.00
28167;BME280;15455;53.376;-6.262;2023-07-31T11:11:23;99936.66;;;15.65;100.00
28167;BME280;15455;53.376;-6.262;2023-07-31T11:14:10;99912.19;;;15.63;100.00
28167;BME280;15455;53.376;-6.262;2023-07-31T11:16:55;99899.81;;;15.65;100.00
28167;BME280;15455;53.376;-6.262;2023-07-31T11:19:41;99889.06;;;15.71;100.00
28167;BME280;15455;53.376;-6.262;2023-07-31T11:22:26;99902.84;;;15.78;100.00
28167;BME280;15455;53.376;-6.262;2023-07-31T11:25:12;99886.22;;;15.77;100.00
28167;BME280;15455;53.376;-6.262;2023-07-31T11:28:04;99891.22;;;15.85;100.00
28167;BME280;15455;53.376;-6.262;2023-07-31T11:30:50;99890.19;;;15.89;100.00
28167;BME280;15455;53.376;-6.262;2023-07-31T11:33:35;99910.81;;;16.00;100.00
28167;BME280;15455;53.376;-6.262;2023-07-31T11:36:21;99901.69;;;15.87;100.00
28167;BME280;15455;53.376;-6.262;2023-07-31T11:39:09;99906.22;;;15.83;100.00
28167;BME280;15455;53.376;-6.262;2023-07-31T11:41:59;99905.53;;;15.76;100.00
28167;BME280;15455;53.376;-6.262;2023-07-31T11:44:45;99912.78;;;15.70;100.00
28167;BME280;15455;53.376;-6.262;2023-07-31T11:47:34;99915.38;;;15.71;100.00
28167;BME280;15455;53.376;-6.262;2023-07-31T11:50:20;99899.38;;;15.77;100.00
28167;BME280;15455;53.376;-6.262;2023-07-31T11:53:07;99919.97;;;15.90;100.00
28167;BME280;15455;53.376;-6.262;2023-07-31T11:55:55;99910.59;;;15.83;100.00
28167;BME280;15455;53.376;-6.262;2023-07-31T11:58:46;99916.19;;;15.73;100.00
28167;BME280;15455;53.376;-6.262;2023-07-31T12:01:32;99906.88;;;15.65;100.00
28167;BME280;15455;53.376;-6.262;2023-07-31T12:04:18;99911.25;;;15.64;100.00
28167;BME280;15455;53.376;-6.262;2023-07-31T12:07:05;99900.22;;;15.78;100.00
28167;BME280;15455;53.376;-6.262;2023-07-31T12:09:52;99908.56;;;16.13;100.00
28167;BME280;15455;53.376;-6.262;2023-07-31T12:12:38;99885.47;;;16.42;100.00
28167;BME280;15455;53.376;-6.262;2023-07-31T12:18:20;99843.25;;;16.86;100.00
28167;BME280;15455;53.376;-6.262;2023-07-31T12:21:07;99838.34;;;16.99;100.00
28167;BME280;15455;53.376;-6.262;2023-07-31T12:23:53;99811.41;;;17.11;100.00
28167;BME280;15455;53.376;-6.262;2023-07-31T12:26:39;99809.22;;;17.21;100.00
28167;BME280;15455;53.376;-6.262;2023-07-31T12:29:34;99782.59;;;17.65;100.00
28167;BME280;15455;53.376;-6.262;2023-07-31T12:32:23;99771.22;;;18.01;100.00
28167;BME280;15455;53.376;-6.262;2023-07-31T12:35:11;99774.19;;;18.13;100.00
28167;BME280;15455;53.376;-6.262;2023-07-31T12:37:56;99769.69;;;18.15;100.00
28167;BME280;15455;53.376;-6.262;2023-07-31T12:40:44;99770.84;;;18.09;100.00
28167;BME280;15455;53.376;-6.262;2023-07-31T12:43:29;99744.75;;;18.20;100.00
28167;BME280;15455;53.376;-6.262;2023-07-31T12:46:15;99761.22;;;18.43;100.00
28167;BME280;15455;53.376;-6.262;2023-07-31T12:49:01;99753.31;;;18.43;100.00
28167;BME280;15455;53.376;-6.262;2023-07-31T12:51:48;99756.47;;;18.50;100.00
28167;BME280;15455;53.376;-6.262;2023-07-31T12:54:33;99748.63;;;18.48;100.00
28167;BME280;15455;53.376;-6.262;2023-07-31T12:57:21;99737.50;;;18.59;100.00
28167;BME280;15455;53.376;-6.262;2023-07-31T13:00:07;99741.66;;;18.81;100.00
28167;BME280;15455;53.376;-6.262;2023-07-31T13:02:53;99729.66;;;19.08;100.00
28167;BME280;15455;53.376;-6.262;2023-07-31T13:05:38;99740.22;;;19.08;100.00
28167;BME280;15455;53.376;-6.262;2023-07-31T13:08:24;99753.13;;;18.64;100.00
28167;BME280;15455;53.376;-6.262;2023-07-31T13:11:09;99759.88;;;17.99;100.00
28167;BME280;15455;53.376;-6.262;2023-07-31T13:13:55;99771.97;;;17.67;100.00
28167;BME280;15455;53.376;-6.262;2023-07-31T13:16:41;99783.38;;;17.29;100.00
28167;BME280;15455;53.376;-6.262;2023-07-31T13:19:27;99782.50;;;17.10;100.00
28167;BME280;15455;53.376;-6.262;2023-07-31T13:22:12;99794.31;;;17.01;100.00
28167;BME280;15455;53.376;-6.262;2023-07-31T13:24:57;99796.25;;;17.16;100.00
28167;BME280;15455;53.376;-6.262;2023-07-31T13:27:43;99783.53;;;17.26;100.00
28167;BME280;15455;53.376;-6.262;2023-07-31T13:30:28;99776.38;;;17.28;100.00
28167;BME280;15455;53.376;-6.262;2023-07-31T13:33:14;99779.94;;;17.27;100.00
28167;BME280;15455;53.376;-6.262;2023-07-31T13:36:20;99764.78;;;17.32;100.00
28167;BME280;15455;53.376;-6.262;2023-07-31T13:39:05;99745.72;;;17.45;100.00
28167;BME280;15455;53.376;-6.262;2023-07-31T13:41:51;99760.66;;;18.01;100.00
28167;BME280;15455;53.376;-6.262;2023-07-31T13:44:37;99722.94;;;18.34;100.00
28167;BME280;15455;53.376;-6.262;2023-07-31T13:47:23;99724.94;;;18.47;100.00
28167;BME280;15455;53.376;-6.262;2023-07-31T13:50:08;99720.66;;;18.44;100.00
28167;BME280;15455;53.376;-6.262;2023-07-31T13:52:54;99710.06;;;18.44;100.00
28167;BME280;15455;53.376;-6.262;2023-07-31T13:55:41;99721.69;;;18.42;100.00
28167;BME280;15455;53.376;-6.262;2023-07-31T13:58:32;99736.13;;;18.17;100.00
28167;BME280;15455;53.376;-6.262;2023-07-31T14:01:18;99755.25;;;17.66;100.00
28167;BME280;15455;53.376;-6.262;2023-07-31T14:04:04;99757.78;;;17.31;100.00
28167;BME280;15455;53.376;-6.262;2023-07-31T14:06:49;99770.59;;;17.20;100.00
28167;BME280;15455;53.376;-6.262;2023-07-31T14:09:35;99767.84;;;17.23;100.00
28167;BME280;15455;53.376;-6.262;2023-07-31T14:12:21;99747.88;;;17.17;100.00
28167;BME280;15455;53.376;-6.262;2023-07-31T14:15:27;99748.22;;;17.67;100.00
28167;BME280;15455;53.376;-6.262;2023-07-31T14:18:12;99748.94;;;18.25;100.00
28167;BME280;15455;53.376;-6.262;2023-07-31T14:20:58;99719.16;;;18.73;100.00
28167;BME280;15455;53.376;-6.262;2023-07-31T14:23:44;99704.63;;;18.98;100.00
28167;BME280;15455;53.376;-6.262;2023-07-31T14:26:30;99699.94;;;19.19;100.00
28167;BME280;15455;53.376;-6.262;2023-07-31T14:29:15;99693.47;;;19.41;100.00
28167;BME280;15455;53.376;-6.262;2023-07-31T14:32:00;99696.53;;;19.65;100.00